This is the latest recevied weather packets stored in our database for station/object Kisslegg. If no packets are shown the sender has not sent any weather packets the latest 10 day(s).
| Time | Temp. | Humidity | Pressure | Rain* | Wind** | Luminosity | Snow |
|---|---|---|---|---|---|---|---|
| 1787619730 | 15° C | 76% | 1008.6 hPa | 0 mm | - | - | - |
| 1787617931 | 15° C | 76% | 1008.6 hPa | 0 mm | - | - | - |
| 1787616131 | 15.56° C | 74% | 1008.4 hPa | 0 mm | - | - | - |
| 1787614331 | 15.56° C | 73% | 1008.8 hPa | 0 mm | - | - | - |
| 1787612532 | 16.11° C | 74% | 1009.2 hPa | 0 mm | - | - | - |
| 1787610731 | 16.11° C | 73% | 1010.2 hPa | 0 mm | - | - | - |
| 1787608931 | 16.67° C | 73% | 1010.2 hPa | 0 mm | - | - | - |
| 1787607132 | 17.22° C | 71% | 1010.2 hPa | 0.76 mm | - | - | - |
| 1787605336 | 17.78° C | 70% | 1010.4 hPa | 0.76 mm | - | - | - |
| 1787603530 | 17.78° C | 69% | 1010.6 hPa | 0.76 mm | - | - | - |
| 1787601731 | 18.33° C | 68% | 1011.2 hPa | 0.76 mm | - | - | - |
| 1787599931 | 18.33° C | 66% | 1011.6 hPa | 0.76 mm | - | - | - |
| 1787598131 | 18.89° C | 65% | 1012.2 hPa | 0.76 mm | - | - | - |
| 1787596330 | 19.44° C | 65% | 1012 hPa | 0.51 mm | - | - | - |
| 1787594531 | 20° C | 63% | 1012 hPa | 0.51 mm | - | - | - |
| 1787592731 | 21.11° C | 61% | 1012.2 hPa | 0.51 mm | - | - | - |
| 1787590931 | 21.11° C | 61% | 1012.4 hPa | 0.51 mm | - | - | - |
| 1787589130 | 21.11° C | 61% | 1012.9 hPa | 0.51 mm | - | - | - |
| 1787587330 | 22.22° C | 60% | 1013.5 hPa | 0.51 mm | - | - | - |
| 1787585530 | 22.78° C | 57% | 1013.7 hPa | 0.51 mm | - | - | - |
| 1787583731 | 23.89° C | 53% | 1014.3 hPa | 0.51 mm | - | - | - |
| 1787581930 | 23.33° C | 57% | 1014.5 hPa | 0.51 mm | - | - | - |
| 1787580131 | 23.33° C | 56% | 1015 hPa | 0.51 mm | - | - | - |
| 1787578331 | 23.33° C | 56% | 1015.5 hPa | 0.51 mm | - | - | - |
| 1787576530 | 23.33° C | 56% | 1015.9 hPa | 0.51 mm | - | - | - |
* Rain since midnight (hover to see other rain measurements)
** Current wind speed in m/s (hover to see current wind gust speed)